首页
METAR-TAF:

METAR-TAF

机场 :

Rouyn-Noranda, 魁北克, 加拿大

纬度: 48-12N, 经度: 078-50W, 海拔: 301米

当前天气观测

该预报发布于41分钟前的01:00 UTC
静风
温度 -5°C
湿度 100%
气压 1012 hPa
能見度: 24.1公里
散云层高于14000英尺

METAR: CYUY 200100Z 00000KT 15SM SCT140 M05/M05 A2988 RMK AC4 SLP140

时间: 20:41 (01:41 UTC)

预报

该预报发布于1小时和52分钟前的23:49 UTC
预报有效从20日的 00点(UTC)到 20日的 12点(UTC)
风速3节,风向多变
能見度: 10公里
散云层高于800英尺
多云层高于2500英尺
短暂存在
从 20日的 00点(UTC)到 20日的 09点(UTC)
能見度: 8.0公里
多云层高于800英尺
多云层高于3000英尺
轻雾
从 20日的 0900点(UTC)
风速5节,风向南转南东
能見度: 9.7公里
阴天层高于2000英尺
轻雾
短暂存在
从 20日的 09点(UTC)到 20日的 12点(UTC)
能見度: 3.2公里
多云层高于500英尺
阴天层高于2000英尺
小雪
几率 30%
从 20日的 09点(UTC)到 20日的 12点(UTC)
能見度: 1.6公里
阴天层高于500英尺
小雪, (小) 冻, 毛毛雨, 轻雾

TAF: CYUY 192349Z 2000/2012 VRB03KT P6SM SCT008 BKN025 TEMPO 2000/2009 5SM BR BKN008 BKN030 FM200900 16005KT 6SM BR OVC020 TEMPO 2009/2012 2SM -SN BKN005 OVC020 PROB30 2009/2012 1SM -SN -FZDZ BR OVC005 RMK NXT FCST BY 200600Z

超过4000个机场的气象观测和天气预报(METAR&TAF报告)。

可查询的气象台以黄色和红色小点在地图上表示。

将鼠标移到小点上方,可查看气象台名称。

然后点击查看天气观测和预报。

如需切换地图:点击带黑十字的绿色按钮放大地图;点击带横线的绿色按钮缩小地图;或者点击绿色箭头查看邻近地区的地图。


METAR-TAF: